Time;durP1;ratioP1;P1;durP2;ratioP2;P2;SDS_P1;SDS_P2;PMS_P1;PMS_P2;Temp;Humidity;BMP_temperature;BMP_pressure;BME280_temperature;BME280_humidity;BME280_pressure;Samples;Min_cycle;Max_cycle;Signal;HPM_P1;HPM_P2
2023/02/18 15:35:58;;;;;;;15.63;5.47;;;11.00;99.90;;;;;;5051287;28;20861;-60
2023/02/18 15:38:31;;;;;;;12.90;5.53;;;11.00;99.90;;;;;;5044957;28;20044;-62
2023/02/18 15:40:58;;;;;;;13.50;5.32;;;11.10;99.90;;;;;;5041096;28;20084;-60
2023/02/18 15:43:26;;;;;;;12.23;5.55;;;11.10;99.90;;;;;;5048361;28;20009;-62
2023/02/18 15:45:55;;;;;;;12.73;5.40;;;11.20;99.90;;;;;;5036099;28;20116;-60
2023/02/18 15:48:53;;;;;;;17.38;5.95;;;11.30;99.90;;;;;;5048460;28;20025;-62
2023/02/18 15:51:29;;;;;;;9.45;4.90;;;11.30;99.90;;;;;;5031281;28;20120;-61
2023/02/18 15:54:00;;;;;;;16.33;5.30;;;11.30;99.90;;;;;;5041303;28;20025;-61
2023/02/18 15:56:35;;;;;;;13.25;5.32;;;11.40;99.90;;;;;;5048430;28;20056;-61
2023/02/18 15:59:08;;;;;;;16.38;5.03;;;11.40;99.90;;;;;;5048122;28;20470;-62
2023/02/18 16:01:34;;;;;;;11.70;5.07;;;11.40;99.90;;;;;;5037515;28;20021;-61
2023/02/18 16:03:59;;;;;;;15.27;6.00;;;11.50;99.90;;;;;;5037249;28;20106;-61
2023/02/18 16:06:28;;;;;;;11.60;6.25;;;11.50;99.90;;;;;;5040946;28;20028;-61
2023/02/18 16:09:16;;;;;;;13.02;6.07;;;11.50;99.90;;;;;;5032339;28;20104;-62
2023/02/18 16:11:47;;;;;;;15.27;6.35;;;11.50;99.90;;;;;;5028213;28;20025;-61
2023/02/18 16:14:23;;;;;;;17.53;6.37;;;11.50;99.90;;;;;;5026217;28;20550;-61
2023/02/18 16:17:13;;;;;;;19.85;6.05;;;11.50;99.90;;;;;;5028696;28;20029;-60
2023/02/18 16:19:56;;;;;;;10.45;5.47;;;11.50;99.90;;;;;;5026369;28;20122;-60
2023/02/18 16:22:33;;;;;;;13.25;6.43;;;11.50;99.90;;;;;;5039867;28;20514;-60
2023/02/18 16:25:07;;;;;;;15.68;7.03;;;11.40;99.90;;;;;;5027811;28;20021;-61
2023/02/18 16:27:37;;;;;;;15.48;7.10;;;11.50;99.90;;;;;;5036353;28;20405;-61
2023/02/18 16:30:18;;;;;;;14.70;6.93;;;11.50;99.90;;;;;;5047394;28;20108;-62
2023/02/18 16:32:45;;;;;;;19.52;7.68;;;11.50;99.90;;;;;;5042173;28;20026;-62
2023/02/18 16:35:12;;;;;;;17.60;8.02;;;11.40;99.90;;;;;;5057001;28;20134;-61
2023/02/18 16:37:38;;;;;;;13.57;8.05;;;11.40;99.90;;;;;;5046004;28;20033;-61
2023/02/18 16:40:24;;;;;;;18.25;8.50;;;11.40;99.90;;;;;;5046037;28;20025;-62
2023/02/18 16:42:51;;;;;;;13.32;7.30;;;11.40;99.90;;;;;;5030739;28;20049;-62
2023/02/18 16:45:18;;;;;;;18.48;8.82;;;11.40;99.90;;;;;;5043673;28;20387;-60
2023/02/18 16:47:46;;;;;;;16.98;7.57;;;11.40;99.90;;;;;;5033876;28;20540;-61
2023/02/18 16:50:21;;;;;;;13.80;7.43;;;11.40;99.90;;;;;;5020767;28;20487;-62
2023/02/18 16:52:48;;;;;;;12.90;7.43;;;11.40;99.90;;;;;;5016347;28;20494;-59
2023/02/18 16:55:18;;;;;;;18.02;8.45;;;11.40;99.90;;;;;;5024133;28;20038;-60
2023/02/18 16:57:44;;;;;;;14.37;8.90;;;11.40;99.90;;;;;;5019233;28;20022;-61
2023/02/18 17:00:10;;;;;;;17.25;8.07;;;11.40;99.90;;;;;;5014419;28;20077;-60
2023/02/18 17:02:36;;;;;;;16.77;7.97;;;11.40;99.90;;;;;;5014058;28;20073;-61
2023/02/18 17:05:02;;;;;;;15.32;8.55;;;11.40;99.90;;;;;;5012217;28;20034;-61
2023/02/18 17:07:28;;;;;;;16.48;7.85;;;11.30;99.90;;;;;;5015217;28;20434;-61
2023/02/18 17:09:54;;;;;;;16.15;8.02;;;11.30;99.90;;;;;;5024790;28;20422;-61
2023/02/18 17:12:19;;;;;;;13.77;7.95;;;11.30;99.90;;;;;;5030228;28;20475;-62
2023/02/18 17:14:45;;;;;;;15.75;9.07;;;11.30;99.90;;;;;;5033373;28;20041;-62
2023/02/18 17:17:16;;;;;;;16.88;7.93;;;11.20;99.90;;;;;;5033802;28;20112;-62
2023/02/18 17:19:42;;;;;;;17.65;8.82;;;11.20;99.90;;;;;;5034132;28;20029;-61
2023/02/18 17:22:12;;;;;;;19.52;8.95;;;11.20;99.90;;;;;;5031644;28;20021;-62
2023/02/18 17:24:37;;;;;;;16.02;8.25;;;11.20;99.90;;;;;;5033545;28;20025;-62
2023/02/18 17:27:03;;;;;;;18.15;8.50;;;11.10;99.90;;;;;;5033383;28;20025;-62
2023/02/18 17:29:28;;;;;;;18.27;8.57;;;11.10;99.90;;;;;;5034082;28;20022;-62
2023/02/18 17:31:56;;;;;;;16.67;8.88;;;11.20;99.90;;;;;;5032471;28;20029;-61
2023/02/18 17:34:25;;;;;;;13.90;8.25;;;11.10;99.90;;;;;;5041123;28;20037;-62
2023/02/18 17:36:51;;;;;;;19.40;9.13;;;11.10;99.90;;;;;;5036805;28;20208;-62
2023/02/18 17:39:17;;;;;;;20.08;8.60;;;11.10;99.90;;;;;;5032845;28;20021;-61
2023/02/18 17:41:43;;;;;;;17.45;9.25;;;11.10;99.90;;;;;;5033955;28;20021;-60
2023/02/18 17:44:20;;;;;;;14.32;8.95;;;11.10;99.90;;;;;;5033359;28;20469;-61
2023/02/18 17:46:48;;;;;;;19.60;9.52;;;11.10;99.90;;;;;;5032193;28;20128;-61
2023/02/18 17:49:14;;;;;;;24.48;9.77;;;11.00;99.90;;;;;;5032722;28;20072;-62
2023/02/18 17:51:40;;;;;;;20.88;9.25;;;11.00;99.90;;;;;;5033337;28;20025;-62
2023/02/18 17:54:24;;;;;;;19.50;9.32;;;11.00;99.90;;;;;;5032629;28;20035;-62
2023/02/18 17:56:50;;;;;;;19.25;9.35;;;10.90;99.90;;;;;;5034646;28;20032;-60
2023/02/18 17:59:15;;;;;;;18.90;9.32;;;11.00;99.90;;;;;;5031986;28;20038;-60
2023/02/18 18:01:42;;;;;;;18.92;9.27;;;11.00;99.90;;;;;;5033403;28;20032;-61
2023/02/18 18:04:15;;;;;;;23.95;9.05;;;10.90;99.90;;;;;;5034428;28;20022;-62
2023/02/18 18:06:44;;;;;;;18.48;9.88;;;10.80;99.90;;;;;;5032690;28;20025;-62
2023/02/18 18:09:10;;;;;;;19.23;10.57;;;10.80;99.90;;;;;;5033223;28;20096;-61
2023/02/18 18:11:36;;;;;;;22.25;10.43;;;10.80;99.90;;;;;;5032977;28;20025;-62
2023/02/18 18:14:02;;;;;;;18.50;10.20;;;10.80;99.90;;;;;;5032005;28;20044;-62
2023/02/18 18:16:27;;;;;;;24.10;11.00;;;10.90;99.90;;;;;;5032704;28;20378;-61
2023/02/18 18:18:53;;;;;;;23.23;9.77;;;10.90;99.90;;;;;;5034767;28;20053;-62
2023/02/18 18:21:28;;;;;;;23.45;10.30;;;11.00;99.90;;;;;;5033516;28;20480;-62
2023/02/18 18:23:54;;;;;;;22.80;10.20;;;10.90;99.90;;;;;;5032677;28;20076;-62
2023/02/18 18:26:20;;;;;;;27.02;11.15;;;11.00;99.90;;;;;;5032858;28;20426;-62
2023/02/18 18:28:46;;;;;;;26.00;12.50;;;11.00;99.90;;;;;;5032899;28;20371;-61
2023/02/18 18:31:14;;;;;;;27.00;11.45;;;11.00;99.90;;;;;;5041812;28;20140;-62
2023/02/18 18:33:40;;;;;;;20.83;11.20;;;11.00;99.90;;;;;;5034289;28;20497;-62
2023/02/18 18:36:06;;;;;;;17.63;10.98;;;11.00;99.90;;;;;;5013826;28;20088;-62
2023/02/18 18:38:32;;;;;;;24.70;12.23;;;11.00;99.90;;;;;;5032579;28;20091;-61
2023/02/18 18:40:58;;;;;;;24.25;12.38;;;11.00;99.90;;;;;;5032131;28;20076;-62
2023/02/18 18:43:29;;;;;;;25.95;12.15;;;11.00;99.90;;;;;;5031313;28;20029;-61
2023/02/18 18:45:55;;;;;;;23.73;12.18;;;11.00;99.90;;;;;;5042945;28;20563;-63
2023/02/18 18:48:22;;;;;;;24.20;12.48;;;11.00;99.90;;;;;;5033456;28;20079;-62
2023/02/18 18:50:49;;;;;;;25.80;12.07;;;11.00;99.90;;;;;;5039111;28;20084;-60
2023/02/18 18:53:24;;;;;;;31.40;13.00;;;10.90;99.90;;;;;;5051935;28;20099;-61
2023/02/18 18:55:52;;;;;;;24.33;11.35;;;10.90;99.90;;;;;;5046031;28;20123;-61
2023/02/18 18:58:23;;;;;;;24.38;11.77;;;11.00;99.90;;;;;;5035519;28;20022;-62
2023/02/18 19:00:51;;;;;;;29.77;10.98;;;11.00;99.90;;;;;;5041066;28;20394;-60
2023/02/18 19:03:19;;;;;;;35.00;12.15;;;11.00;99.90;;;;;;5031708;28;20017;-61
2023/02/18 19:05:46;;;;;;;22.95;11.98;;;11.00;99.90;;;;;;5050989;28;20032;-61
2023/02/18 19:08:12;;;;;;;30.42;12.50;;;10.90;99.90;;;;;;5051780;28;20473;-61
2023/02/18 19:10:40;;;;;;;21.85;11.45;;;10.90;99.90;;;;;;5051016;28;20032;-62
2023/02/18 19:13:15;;;;;;;23.55;12.32;;;10.90;99.90;;;;;;5051770;28;20025;-61
2023/02/18 19:15:42;;;;;;;21.73;11.32;;;10.90;99.90;;;;;;5051943;28;20044;-61
2023/02/18 19:18:12;;;;;;;23.63;10.95;;;10.80;99.90;;;;;;5051240;28;20083;-61
2023/02/18 19:20:37;;;;;;;22.17;11.13;;;10.80;99.90;;;;;;5051705;28;20108;-62
2023/02/18 19:23:03;;;;;;;27.67;12.00;;;10.70;99.90;;;;;;5033798;28;20048;-61
2023/02/18 19:25:30;;;;;;;19.08;10.05;;;10.70;99.90;;;;;;5050981;28;20032;-61
2023/02/18 19:27:55;;;;;;;23.10;11.30;;;10.70;99.90;;;;;;5045997;28;20108;-62
2023/02/18 19:30:24;;;;;;;20.65;11.15;;;10.70;99.90;;;;;;5049501;28;20047;-61
2023/02/18 19:32:53;;;;;;;24.88;12.52;;;10.60;99.90;;;;;;5051330;28;20021;-61
2023/02/18 19:35:19;;;;;;;25.60;11.70;;;10.60;99.90;;;;;;5051560;28;20049;-61
2023/02/18 19:37:45;;;;;;;21.48;9.88;;;10.60;99.90;;;;;;5050924;28;20025;-61
2023/02/18 19:40:14;;;;;;;18.38;10.32;;;10.60;99.90;;;;;;5051621;28;20101;-62
2023/02/18 19:42:40;;;;;;;22.95;10.65;;;10.60;99.90;;;;;;5017107;28;20079;-62
2023/02/18 19:45:06;;;;;;;18.38;9.60;;;10.60;99.90;;;;;;5030468;28;20025;-62
2023/02/18 19:47:31;;;;;;;22.70;10.65;;;10.60;99.90;;;;;;5031452;28;20025;-61
2023/02/18 19:49:59;;;;;;;20.35;9.95;;;10.50;99.90;;;;;;5030885;28;20025;-62
2023/02/18 19:52:25;;;;;;;25.85;12.43;;;10.60;99.90;;;;;;5050901;28;20493;-62
2023/02/18 19:54:51;;;;;;;25.70;11.57;;;10.60;99.90;;;;;;5030489;28;20445;-60
2023/02/18 19:57:17;;;;;;;21.00;11.38;;;10.60;99.90;;;;;;5040902;28;20532;-61
2023/02/18 19:59:43;;;;;;;27.63;12.55;;;10.60;99.90;;;;;;5050521;28;20421;-61
2023/02/18 20:02:14;;;;;;;21.30;12.15;;;10.60;99.90;;;;;;5051192;28;20478;-60
2023/02/18 20:04:40;;;;;;;28.30;12.52;;;10.60;99.90;;;;;;5047047;28;20033;-61
2023/02/18 20:07:06;;;;;;;31.55;12.48;;;10.70;99.90;;;;;;5050665;28;20012;-62
2023/02/18 20:09:32;;;;;;;31.00;12.13;;;10.60;99.90;;;;;;5051123;28;20025;-62
2023/02/18 20:11:57;;;;;;;22.75;11.55;;;10.70;99.90;;;;;;5051209;28;20013;-61
2023/02/18 20:14:25;;;;;;;30.23;12.95;;;10.70;99.90;;;;;;5047171;28;20370;-61
2023/02/18 20:16:52;;;;;;;31.45;12.43;;;10.70;99.90;;;;;;5039127;28;20022;-63
